createdAt,value
2023-02-24T00:30:16.452Z,94631.00
2023-02-24T00:31:16.653Z,94627.00
2023-02-24T00:32:16.892Z,94627.00
2023-02-24T00:33:16.751Z,94625.00
2023-02-24T00:34:16.833Z,94627.00
2023-02-24T00:35:16.914Z,94625.00
2023-02-24T00:36:16.994Z,94625.00
2023-02-24T00:37:17.046Z,94623.00
2023-02-24T00:38:17.154Z,94621.00
2023-02-24T00:39:17.243Z,94623.00
2023-02-24T00:40:17.337Z,94623.00
2023-02-24T00:41:17.767Z,94619.00
2023-02-24T00:42:17.532Z,94623.00
2023-02-24T00:43:17.600Z,94623.00
2023-02-24T00:44:17.701Z,94621.00
2023-02-24T00:45:17.748Z,94623.00
2023-02-24T00:46:17.936Z,94623.00
2023-02-24T00:47:17.977Z,94623.00
2023-02-24T00:48:18.028Z,94623.00
2023-02-24T00:49:18.098Z,94623.00
2023-02-24T00:50:18.161Z,94623.00
2023-02-24T00:51:18.426Z,94621.00
2023-02-24T00:52:18.362Z,94619.00
2023-02-24T00:53:18.436Z,94617.00
2023-02-24T00:54:18.474Z,94615.00
2023-02-24T00:55:18.595Z,94615.00
2023-02-24T00:56:18.681Z,94613.00
2023-02-24T00:57:18.802Z,94613.00
2023-02-24T00:58:18.864Z,94611.00
2023-02-24T00:59:18.938Z,94611.00
2023-02-24T01:00:19.039Z,94613.00
2023-02-24T01:01:19.460Z,94611.00
2023-02-24T01:02:19.228Z,94611.00
2023-02-24T01:03:19.317Z,94611.00
2023-02-24T01:04:19.502Z,94611.00
2023-02-24T01:05:19.475Z,94613.00
2023-02-24T01:06:19.571Z,94611.00
2023-02-24T01:07:19.695Z,94607.00
2023-02-24T01:08:19.801Z,94605.00
2023-02-24T01:09:19.894Z,94605.00
2023-02-24T01:10:19.969Z,94603.00
2023-02-24T01:34:22.018Z,94580.00
2023-02-24T01:35:22.080Z,94582.00
2023-02-24T01:36:22.151Z,94582.00
2023-02-24T01:37:22.283Z,94582.00
2023-02-24T01:38:22.350Z,94580.00
2023-02-24T01:39:22.486Z,94576.00
2023-02-24T01:40:22.545Z,94572.00
2023-02-24T01:41:22.749Z,94574.00
2023-02-24T01:42:22.698Z,94572.00
2023-02-24T01:43:22.811Z,94570.00
2023-02-24T01:44:22.889Z,94568.00
2023-02-24T01:45:23.034Z,94566.00
2023-02-24T01:46:23.124Z,94560.00
2023-02-24T02:28:26.458Z,94546.00
2023-02-24T02:29:26.534Z,94548.00
2023-02-24T04:34:36.506Z,94503.00
2023-02-24T04:35:36.597Z,94501.00
2023-02-24T04:36:36.680Z,94501.00
2023-02-24T04:37:36.799Z,94497.00
2023-02-24T04:38:36.824Z,94497.00
2023-02-24T04:39:36.928Z,94493.00
2023-02-24T04:40:36.956Z,94491.00
2023-02-24T04:41:37.048Z,94490.00
2023-02-24T04:42:37.120Z,94486.00
2023-02-24T04:43:37.181Z,94486.00
2023-02-24T04:44:37.297Z,94484.00
2023-02-24T04:45:37.412Z,94482.00
2023-02-24T04:46:37.508Z,94482.00
2023-02-24T04:47:37.575Z,94482.00
2023-02-24T04:48:37.598Z,94482.00
2023-02-24T04:49:37.693Z,94482.00
2023-02-24T04:50:37.740Z,94482.00
2023-02-24T04:51:37.807Z,94478.00
2023-02-24T04:52:37.900Z,94476.00
2023-02-24T04:53:37.981Z,94476.00
2023-02-24T04:54:38.074Z,94476.00
2023-02-24T04:55:38.149Z,94476.00
2023-02-24T04:56:38.232Z,94476.00
2023-02-24T04:57:38.324Z,94476.00
2023-02-24T04:58:38.415Z,94474.00
2023-02-24T04:59:38.476Z,94474.00
2023-02-24T05:00:38.569Z,94470.00
2023-02-24T05:01:38.644Z,94472.00
2023-02-24T05:02:38.713Z,94472.00
2023-02-24T05:03:38.888Z,94470.00
2023-02-24T05:04:39.174Z,94470.00
2023-02-24T05:05:39.001Z,94470.00
2023-02-24T05:06:39.047Z,94464.00
2023-02-24T05:07:39.144Z,94470.00
2023-02-24T05:08:39.225Z,94468.00
2023-02-24T05:09:39.313Z,94468.00
2023-02-24T05:10:39.393Z,94466.00
2023-02-24T05:11:39.467Z,94464.00
2023-02-24T05:12:39.600Z,94462.00
2023-02-24T05:13:39.640Z,94460.00
2023-02-24T05:31:41.334Z,94437.00
2023-02-24T05:32:41.343Z,94437.00
2023-02-24T05:33:41.355Z,94437.00
2023-02-24T05:34:41.407Z,94435.00
2023-02-24T05:35:41.489Z,94435.00
2023-02-24T05:36:41.604Z,94433.00
2023-02-24T05:37:41.649Z,94433.00
2023-02-24T05:38:41.755Z,94433.00
2023-02-24T05:39:41.804Z,94431.00
2023-02-24T05:40:41.929Z,94433.00
2023-02-24T05:41:42.194Z,94433.00
2023-02-24T05:42:42.069Z,94429.00
2023-02-24T05:43:42.156Z,94429.00
2023-02-24T05:44:42.217Z,94427.00
2023-02-24T05:45:42.306Z,94425.00
2023-02-24T05:46:42.421Z,94425.00
2023-02-24T05:47:42.468Z,94425.00
2023-02-24T05:48:42.552Z,94427.00
2023-02-24T05:49:42.663Z,94425.00
2023-02-24T05:50:42.743Z,94427.00
2023-02-24T05:51:42.831Z,94423.00
2023-02-24T05:52:42.910Z,94421.00
2023-02-24T05:53:43.002Z,94419.00
2023-02-24T05:54:43.058Z,94421.00
2023-02-24T05:55:43.128Z,94417.00
2023-02-24T05:56:43.260Z,94419.00
2023-02-24T05:57:43.361Z,94419.00
2023-02-24T05:58:43.428Z,94419.00
2023-02-24T05:59:43.506Z,94421.00
2023-02-24T06:00:50.717Z,94423.00
2023-02-24T06:02:43.733Z,94425.00
2023-02-24T06:03:43.761Z,94425.00
2023-02-24T06:04:43.785Z,94425.00
2023-02-24T06:05:43.917Z,94425.00
2023-02-24T06:06:43.822Z,94425.00
2023-02-24T06:42:46.481Z,94427.00
2023-02-24T06:48:46.488Z,94435.00
2023-02-24T06:49:46.574Z,94431.00
2023-02-24T06:50:46.659Z,94429.00
2023-02-24T06:51:46.702Z,94431.00
2023-02-24T06:52:46.812Z,94429.00
2023-02-24T06:53:46.947Z,94431.00
2023-02-24T06:54:46.951Z,94431.00
2023-02-24T06:55:46.991Z,94431.00
2023-02-24T06:56:47.058Z,94429.00
2023-02-24T06:57:47.117Z,94429.00
2023-02-24T06:58:47.178Z,94429.00
2023-02-24T06:59:47.254Z,94425.00
2023-02-24T07:00:47.360Z,94429.00
2023-02-24T07:01:47.396Z,94423.00
2023-02-24T07:02:47.433Z,94423.00
2023-02-24T07:03:47.591Z,94419.00
2023-02-24T07:04:47.634Z,94423.00
2023-02-24T07:05:47.641Z,94419.00
2023-02-24T07:06:47.733Z,94419.00
2023-02-24T07:07:47.808Z,94423.00
2023-02-24T07:08:47.870Z,94423.00
2023-02-24T07:09:47.920Z,94421.00
2023-02-24T07:10:47.985Z,94421.00
2023-02-24T07:11:48.069Z,94421.00
2023-02-24T07:12:48.119Z,94419.00
2023-02-24T07:13:48.173Z,94415.00
2023-02-24T07:14:48.237Z,94411.00
2023-02-24T07:15:48.307Z,94411.00
2023-02-24T07:16:48.417Z,94409.00
2023-02-24T07:17:48.573Z,94409.00
2023-02-24T07:18:48.500Z,94411.00
2023-02-24T07:19:48.532Z,94411.00
2023-02-24T07:20:48.634Z,94411.00
2023-02-24T07:21:48.730Z,94411.00
2023-02-24T07:22:48.745Z,94409.00
2023-02-24T07:23:49.459Z,94407.00
2023-02-24T07:24:48.868Z,94403.00
2023-02-24T07:25:48.955Z,94405.00
2023-02-24T07:26:48.972Z,94409.00
2023-02-24T07:27:49.059Z,94411.00
2023-02-24T07:28:49.105Z,94405.00
2023-02-24T07:29:50.727Z,94405.00
2023-02-24T07:30:49.508Z,94403.00
2023-02-24T07:31:49.591Z,94401.00
2023-02-24T07:32:49.545Z,94403.00
2023-02-24T07:33:49.563Z,94403.00
2023-02-24T07:34:49.626Z,94403.00
2023-02-24T07:35:49.676Z,94403.00
2023-02-24T07:36:49.783Z,94401.00
2023-02-24T07:37:49.794Z,94401.00
2023-02-24T07:38:49.980Z,94399.00
2023-02-24T07:39:49.983Z,94397.00
2023-02-24T07:40:50.002Z,94396.00
2023-02-24T07:41:50.063Z,94396.00
2023-02-24T07:42:50.086Z,94397.00
2023-02-24T07:43:50.170Z,94397.00
2023-02-24T07:44:50.256Z,94396.00
2023-02-24T07:45:50.348Z,94394.00
2023-02-24T07:46:50.355Z,94396.00
2023-02-24T07:47:50.480Z,94394.00
2023-02-24T07:48:50.529Z,94392.00
2023-02-24T07:49:50.563Z,94382.00
2023-02-24T07:50:50.599Z,94378.00
2023-02-24T07:51:50.713Z,94380.00
2023-02-24T07:52:50.763Z,94378.00
2023-02-24T07:53:52.298Z,94380.00
2023-02-24T07:54:50.861Z,94380.00
2023-02-24T07:55:50.936Z,94376.00
2023-02-24T07:56:50.999Z,94376.00
2023-02-24T07:57:51.097Z,94374.00
2023-02-24T07:58:51.211Z,94376.00
2023-02-24T07:59:51.219Z,94372.00
2023-02-24T08:00:51.244Z,94372.00
2023-02-24T08:01:51.339Z,94374.00
2023-02-24T08:02:51.490Z,94372.00
2023-02-24T08:03:51.538Z,94372.00
2023-02-24T08:04:51.727Z,94368.00
2023-02-24T08:05:51.635Z,94368.00
2023-02-24T08:06:51.686Z,94366.00
2023-02-24T08:07:51.711Z,94364.00
2023-02-24T08:08:52.006Z,94364.00
2023-02-24T08:09:51.845Z,94362.00
2023-02-24T08:10:51.936Z,94358.00
2023-02-24T08:11:52.006Z,94352.00
2023-02-24T08:12:52.087Z,94352.00
2023-02-24T08:13:52.154Z,94349.00
2023-02-24T08:14:52.279Z,94349.00
2023-02-24T08:15:52.326Z,94349.00
2023-02-24T08:16:52.352Z,94349.00
2023-02-24T08:17:52.413Z,94343.00
2023-02-24T08:18:52.471Z,94347.00
2023-02-24T08:19:52.584Z,94343.00
2023-02-24T08:20:52.616Z,94341.00
2023-02-24T08:21:52.665Z,94343.00
2023-02-24T08:22:52.755Z,94341.00
2023-02-24T08:23:53.018Z,94341.00
2023-02-24T08:24:52.901Z,94341.00
2023-02-24T08:25:52.951Z,94339.00
2023-02-24T08:26:53.063Z,94337.00
2023-02-24T08:28:05.130Z,94337.00
2023-02-24T08:29:53.183Z,94331.00
2023-02-24T08:31:53.288Z,94333.00
2023-02-24T08:32:53.317Z,94331.00
2023-02-24T08:33:53.300Z,94329.00
2023-02-24T08:34:53.286Z,94329.00
2023-02-24T08:35:53.340Z,94323.00
2023-02-24T08:36:53.304Z,94323.00
2023-02-24T08:38:53.492Z,94317.00
2023-02-24T08:39:53.944Z,94317.00
2023-02-24T08:40:53.429Z,94315.00
2023-02-24T08:42:53.448Z,94313.00
2023-02-24T08:43:53.454Z,94309.00
2023-02-24T08:44:53.519Z,94313.00
2023-02-24T08:45:53.490Z,94305.00
2023-02-24T08:46:53.581Z,94305.00
2023-02-24T08:47:53.551Z,94304.00
2023-02-24T08:48:53.573Z,94302.00
2023-02-24T08:49:53.585Z,94298.00
2023-02-24T08:50:53.651Z,94298.00
2023-02-24T08:51:53.761Z,94294.00
2023-02-24T08:52:53.794Z,94296.00
2023-02-24T08:53:53.915Z,94296.00
2023-02-24T08:54:53.956Z,94296.00
2023-02-24T08:55:54.054Z,94296.00
2023-02-24T08:56:54.079Z,94298.00
2023-02-24T08:57:54.188Z,94292.00
2023-02-24T08:58:54.275Z,94292.00
2023-02-24T09:02:54.479Z,94280.00
2023-02-24T09:03:54.512Z,94282.00
2023-02-24T09:07:54.941Z,94272.00
2023-02-24T09:44:56.465Z,94204.00
2023-02-24T09:45:56.619Z,94206.00
2023-02-24T09:51:03.195Z,94198.00
2023-02-24T09:53:56.930Z,94190.00
2023-02-24T10:15:00.579Z,94149.00
2023-02-24T10:27:57.563Z,94113.00
2023-02-24T10:45:57.760Z,94078.00
2023-02-24T13:56:06.447Z,93739.00
2023-02-24T13:57:06.511Z,93735.00
2023-02-24T13:58:06.568Z,93731.00
2023-02-24T13:59:06.613Z,93733.00
2023-02-24T14:00:06.687Z,93731.00
2023-02-24T14:01:06.943Z,93733.00
2023-02-24T14:02:06.845Z,93726.00
2023-02-24T14:03:06.910Z,93722.00
2023-02-24T14:04:06.931Z,93726.00
2023-02-24T14:05:06.945Z,93729.00
2023-02-24T14:06:07.030Z,93731.00
2023-02-24T14:07:07.113Z,93726.00
2023-02-24T14:08:07.141Z,93722.00
2023-02-24T14:09:07.228Z,93724.00
2023-02-24T14:10:07.306Z,93729.00
2023-02-24T14:11:07.356Z,93724.00
2023-02-24T14:12:07.377Z,93720.00
2023-02-24T14:13:07.445Z,93726.00
2023-02-24T14:14:07.533Z,93720.00
2023-02-24T14:15:07.602Z,93718.00
2023-02-24T14:16:07.738Z,93720.00
2023-02-24T14:17:07.725Z,93712.00
2023-02-24T14:18:07.748Z,93716.00
2023-02-24T14:19:07.843Z,93710.00
2023-02-24T14:20:07.933Z,93716.00
2023-02-24T14:21:07.962Z,93710.00
2023-02-24T14:22:07.987Z,93710.00
2023-02-24T14:23:08.063Z,93710.00
2023-02-24T14:24:08.107Z,93706.00
2023-02-24T14:25:08.164Z,93706.00
2023-02-24T14:26:08.254Z,93708.00
2023-02-24T14:27:08.265Z,93704.00
2023-02-24T14:28:08.339Z,93704.00
2023-02-24T14:29:08.399Z,93696.00
2023-02-24T14:30:08.516Z,93694.00
2023-02-24T14:31:08.615Z,93698.00
2023-02-24T14:32:08.667Z,93690.00
2023-02-24T14:33:08.599Z,93688.00
2023-02-24T14:34:08.710Z,93688.00
2023-02-24T14:35:08.743Z,93682.00
2023-02-24T14:36:08.789Z,93682.00
2023-02-24T14:37:08.825Z,93686.00
2023-02-24T14:38:08.885Z,93686.00
2023-02-24T14:39:09.011Z,93679.00
2023-02-24T14:40:09.033Z,93679.00
2023-02-24T14:41:09.099Z,93677.00
2023-02-24T14:42:09.126Z,93679.00
2023-02-24T14:43:09.199Z,93671.00
2023-02-24T14:44:09.277Z,93673.00
2023-02-24T14:45:09.320Z,93669.00
2023-02-24T14:46:09.424Z,93663.00
2023-02-24T14:47:09.443Z,93669.00
2023-02-24T14:48:09.498Z,93671.00
2023-02-24T14:49:09.580Z,93661.00
2023-02-24T14:50:10.456Z,93659.00
2023-02-24T14:51:09.666Z,93663.00
2023-02-24T14:52:09.745Z,93669.00
2023-02-24T15:08:10.728Z,93643.00
2023-02-24T15:09:10.809Z,93647.00
2023-02-24T15:10:10.872Z,93647.00
2023-02-24T15:11:10.958Z,93643.00
2023-02-24T15:12:10.980Z,93645.00
2023-02-24T15:13:11.024Z,93641.00
2023-02-24T15:14:11.087Z,93635.00
2023-02-24T15:15:11.173Z,93653.00
2023-02-24T15:16:11.284Z,93643.00
2023-02-24T16:40:16.471Z,93592.00
2023-02-24T16:41:16.577Z,93592.00
2023-02-24T16:42:16.638Z,93585.00
2023-02-24T16:43:16.661Z,93589.00
2023-02-24T16:44:16.772Z,93589.00
2023-02-24T16:45:16.778Z,93594.00
2023-02-24T16:46:16.957Z,93592.00
2023-02-24T16:47:16.888Z,93590.00
2023-02-24T16:48:16.973Z,93587.00
2023-02-24T16:49:17.041Z,93594.00
2023-02-24T16:50:17.112Z,93585.00
2023-02-24T16:51:17.206Z,93581.00
2023-02-24T16:52:17.244Z,93587.00
2023-02-24T16:53:17.340Z,93598.00
2023-02-24T16:54:17.387Z,93589.00
2023-02-24T16:55:17.423Z,93594.00
2023-02-24T16:56:17.515Z,93594.00
2023-02-24T16:57:17.589Z,93598.00
2023-02-24T16:58:17.618Z,93596.00
2023-02-24T16:59:17.698Z,93592.00
2023-02-24T17:00:17.809Z,93587.00
2023-02-24T17:01:17.854Z,93589.00
2023-02-24T17:02:17.888Z,93590.00
2023-02-24T17:03:17.962Z,93596.00
2023-02-24T17:04:18.111Z,93592.00
2023-02-24T17:05:18.099Z,93594.00
2023-02-24T17:06:19.789Z,93590.00
2023-02-24T17:07:18.130Z,93590.00
2023-02-24T17:08:18.128Z,93583.00
2023-02-24T19:41:26.483Z,93585.00
2023-02-24T19:42:26.530Z,93585.00
2023-02-24T19:43:26.525Z,93592.00
2023-02-24T19:44:26.647Z,93590.00
2023-02-24T19:45:26.749Z,93592.00
2023-02-24T19:46:27.222Z,93594.00
2023-02-24T19:47:26.792Z,93594.00
2023-02-24T19:48:26.850Z,93590.00
2023-02-24T19:49:26.919Z,93589.00
2023-02-24T19:50:27.802Z,93589.00
2023-02-24T19:51:27.060Z,93589.00
2023-02-24T19:52:27.173Z,93592.00
2023-02-24T19:53:27.216Z,93594.00
2023-02-24T19:54:27.289Z,93598.00
2023-02-24T19:55:27.341Z,93604.00
2023-02-24T19:56:27.445Z,93606.00
2023-02-24T19:57:27.497Z,93608.00
2023-02-24T19:58:27.516Z,93610.00
2023-02-24T19:59:27.591Z,93622.00
2023-02-24T20:00:27.613Z,93622.00
2023-02-24T20:01:27.796Z,93622.00
2023-02-24T20:02:27.767Z,93622.00
2023-02-24T20:03:27.811Z,93622.00
2023-02-24T20:04:27.932Z,93620.00
2023-02-24T20:05:27.953Z,93622.00
2023-02-24T20:06:29.815Z,93612.00
2023-02-24T20:07:28.033Z,93610.00
2023-02-24T20:08:28.075Z,93606.00
2023-02-24T20:09:28.092Z,93606.00
2023-02-24T20:10:28.091Z,93610.00
2023-02-24T20:11:28.087Z,93608.00
2023-02-24T20:12:28.116Z,93608.00
2023-02-24T20:13:28.113Z,93610.00
2023-02-24T20:14:28.110Z,93608.00
2023-02-24T20:15:28.155Z,93606.00
2023-02-24T20:16:28.236Z,93608.00
2023-02-24T20:17:28.817Z,93602.00
2023-02-24T20:18:28.149Z,93606.00
2023-02-24T20:19:28.173Z,93606.00
2023-02-24T20:20:28.185Z,93608.00
2023-02-24T20:21:28.253Z,93608.00
2023-02-24T20:22:28.193Z,93606.00
2023-02-24T20:23:28.203Z,93604.00
2023-02-24T20:24:28.269Z,93604.00
2023-02-24T20:25:28.255Z,93606.00
2023-02-24T20:26:28.242Z,93606.00
2023-02-24T20:27:28.274Z,93608.00
2023-02-24T20:28:28.294Z,93608.00
2023-02-24T20:29:28.283Z,93602.00
2023-02-24T20:30:28.294Z,93600.00
2023-02-24T20:31:28.351Z,93600.00
2023-02-24T20:32:28.370Z,93600.00
2023-02-24T20:33:28.357Z,93600.00
2023-02-24T20:34:28.327Z,93604.00
2023-02-24T20:35:28.346Z,93602.00
2023-02-24T20:36:28.370Z,93606.00
2023-02-24T20:37:28.372Z,93606.00
2023-02-24T20:38:28.333Z,93600.00
2023-02-24T21:32:29.829Z,93492.00
2023-02-24T21:33:29.718Z,93490.00
2023-02-24T21:34:29.767Z,93490.00
2023-02-24T21:35:29.781Z,93487.00
2023-02-24T21:36:29.831Z,93485.00
2023-02-24T21:37:29.882Z,93487.00
2023-02-24T21:38:29.906Z,93487.00
2023-02-24T21:39:29.945Z,93485.00
2023-02-24T22:04:30.854Z,93492.00
2023-02-24T22:05:30.854Z,93494.00
2023-02-24T22:06:31.922Z,93500.00
2023-02-24T22:07:30.931Z,93498.00
2023-02-24T22:08:30.972Z,93506.00
2023-02-24T22:09:30.978Z,93502.00
2023-02-24T22:10:30.980Z,93504.00
2023-02-24T22:11:31.034Z,93506.00
2023-02-24T22:12:31.023Z,93506.00
2023-02-24T22:13:31.037Z,93506.00
2023-02-24T22:14:31.049Z,93508.00
2023-02-24T22:15:31.091Z,93506.00
2023-02-24T22:16:31.178Z,93504.00
2023-02-24T22:17:31.105Z,93506.00
2023-02-24T22:18:31.140Z,93508.00
2023-02-24T22:19:31.177Z,93510.00
2023-02-24T22:20:31.161Z,93512.00
2023-02-24T22:21:31.200Z,93516.00
2023-02-24T22:22:31.241Z,93524.00
2023-02-24T22:23:31.216Z,93526.00
2023-02-24T22:24:31.256Z,93526.00
2023-02-24T22:25:31.295Z,93520.00
2023-02-24T22:26:31.339Z,93520.00
2023-02-24T22:27:31.353Z,93516.00
2023-02-24T22:28:31.383Z,93518.00
2023-02-24T22:29:31.400Z,93516.00
2023-02-24T22:30:31.472Z,93518.00
2023-02-24T22:31:31.522Z,93520.00
2023-02-24T22:32:31.521Z,93518.00
2023-02-24T22:33:31.497Z,93516.00
2023-02-24T22:34:31.528Z,93516.00
2023-02-24T22:35:31.563Z,93518.00
2023-02-24T22:36:31.559Z,93520.00
2023-02-24T22:37:31.682Z,93520.00
2023-02-24T22:38:31.639Z,93526.00
2023-02-24T22:39:31.638Z,93532.00
2023-02-24T22:40:31.790Z,93536.00
2023-02-24T22:41:31.708Z,93534.00
2023-02-24T22:42:31.758Z,93538.00
2023-02-24T22:43:31.747Z,93543.00
2023-02-24T22:44:31.801Z,93542.00
2023-02-24T22:45:31.825Z,93542.00
2023-02-24T22:46:31.916Z,93545.00
2023-02-24T22:47:31.934Z,93547.00
2023-02-24T22:48:31.972Z,93549.00
2023-02-24T22:49:31.977Z,93561.00
2023-02-24T22:50:32.021Z,93557.00
2023-02-24T22:51:32.062Z,93557.00
2023-02-24T22:52:32.095Z,93555.00
2023-02-24T22:53:32.149Z,93555.00
2023-02-24T22:54:32.160Z,93557.00
2023-02-24T22:55:32.224Z,93545.00
2023-02-24T22:56:32.264Z,93547.00
2023-02-24T22:57:32.263Z,93543.00
2023-02-24T22:58:32.307Z,93542.00
2023-02-24T22:59:32.306Z,93540.00
2023-02-24T23:00:32.375Z,93540.00
2023-02-24T23:01:32.376Z,93536.00
2023-02-24T23:02:32.422Z,93526.00
2023-02-24T23:03:32.461Z,93524.00
2023-02-24T23:04:32.454Z,93522.00
2023-02-24T23:05:32.500Z,93522.00
2023-02-24T23:06:32.546Z,93518.00
2023-02-24T23:07:32.576Z,93516.00
2023-02-24T23:08:32.600Z,93512.00
2023-02-24T23:09:32.649Z,93510.00
2023-02-24T23:10:32.657Z,93506.00
2023-02-24T23:11:32.750Z,93506.00
2023-02-24T23:12:32.723Z,93508.00
2023-02-24T23:13:32.742Z,93512.00
2023-02-24T23:14:32.765Z,93520.00
2023-02-24T23:15:32.808Z,93524.00
2023-02-24T23:16:32.967Z,93528.00
2023-02-24T23:17:32.885Z,93528.00
2023-02-24T23:18:32.903Z,93530.00
2023-02-24T23:19:32.928Z,93530.00
2023-02-24T23:20:32.948Z,93532.00
2023-02-24T23:21:32.991Z,93543.00
2023-02-24T23:22:33.060Z,93542.00
2023-02-24T23:23:33.081Z,93542.00
2023-02-24T23:24:33.104Z,93547.00
2023-02-24T23:25:33.182Z,93540.00
2023-02-24T23:26:33.228Z,93542.00
2023-02-24T23:27:33.228Z,93538.00
2023-02-24T23:28:33.269Z,93538.00
2023-02-24T23:29:33.304Z,93536.00
2023-02-24T23:30:33.347Z,93538.00
2023-02-24T23:31:33.426Z,93538.00
2023-02-24T23:32:33.543Z,93536.00
2023-02-24T23:33:33.393Z,93530.00
2023-02-24T23:34:33.409Z,93532.00
2023-02-24T23:35:33.523Z,93530.00
